createdAt,value
2022-10-12T00:00:36.680Z,19.63
2022-10-12T00:03:38.599Z,17.10
2022-10-12T00:06:40.163Z,15.30
2022-10-12T00:09:41.838Z,15.73
2022-10-12T00:12:43.434Z,15.35
2022-10-12T00:15:45.049Z,16.75
2022-10-12T00:18:54.087Z,17.42
2022-10-12T00:21:55.632Z,24.48
2022-10-12T00:24:57.180Z,24.40
2022-10-12T00:27:58.719Z,20.27
2022-10-12T00:31:01.292Z,21.48
2022-10-12T00:34:03.659Z,19.33
2022-10-12T00:37:05.245Z,18.67
2022-10-12T00:40:07.335Z,15.73
2022-10-12T00:43:34.090Z,17.02
2022-10-12T00:46:46.544Z,15.43
2022-10-12T00:50:20.819Z,14.13
2022-10-12T00:53:28.381Z,14.13
2022-10-12T00:56:34.428Z,14.82
2022-10-12T00:59:44.248Z,14.30
2022-10-12T01:02:48.898Z,13.65
2022-10-12T01:05:50.618Z,13.63
2022-10-12T01:08:54.950Z,13.55
2022-10-12T01:11:57.849Z,14.40
2022-10-12T01:15:02.353Z,15.18
2022-10-12T01:18:18.803Z,13.70
2022-10-12T01:21:22.479Z,15.60
2022-10-12T01:24:42.737Z,15.13
2022-10-12T01:27:51.948Z,14.88
2022-10-12T01:31:02.011Z,14.88
2022-10-12T01:34:18.113Z,15.10
2022-10-12T01:37:42.658Z,16.13
2022-10-12T01:40:56.819Z,14.50
2022-10-12T01:43:58.354Z,12.13
2022-10-12T01:46:59.964Z,13.30
2022-10-12T01:50:04.180Z,12.77
2022-10-12T01:53:24.138Z,10.68
2022-10-12T01:56:42.245Z,11.57
2022-10-12T01:59:54.991Z,10.45
2022-10-12T02:03:33.071Z,9.68
2022-10-12T02:06:43.745Z,10.60
2022-10-12T02:09:45.635Z,10.18
2022-10-12T02:12:49.427Z,10.13
2022-10-12T02:15:53.136Z,9.15
2022-10-12T02:18:57.465Z,10.30
2022-10-12T02:22:04.249Z,13.13
2022-10-12T02:25:11.750Z,11.63
2022-10-12T02:28:17.515Z,13.15
2022-10-12T02:31:26.269Z,14.23
2022-10-12T02:34:57.990Z,13.55
2022-10-12T02:38:24.511Z,14.10
2022-10-12T02:41:33.219Z,13.48
2022-10-12T02:44:38.876Z,13.10
2022-10-12T02:47:42.237Z,13.50
2022-10-12T02:50:44.731Z,13.43
2022-10-12T02:53:46.907Z,13.93
2022-10-12T02:56:48.553Z,12.88
2022-10-12T02:59:50.136Z,14.85
2022-10-12T03:02:51.675Z,14.00
2022-10-12T03:05:53.279Z,13.23
2022-10-12T03:08:56.979Z,13.50
2022-10-12T03:11:58.634Z,11.98
2022-10-12T03:15:00.173Z,12.48
2022-10-12T03:18:01.734Z,12.45
2022-10-12T03:21:03.734Z,12.02
2022-10-12T03:24:05.530Z,11.93
2022-10-12T03:27:07.067Z,11.85
2022-10-12T03:30:11.276Z,11.27
2022-10-12T03:33:13.159Z,12.77
2022-10-12T03:36:14.721Z,11.80
2022-10-12T03:39:16.284Z,10.88
2022-10-12T03:42:17.921Z,11.98
2022-10-12T03:45:19.479Z,12.43
2022-10-12T03:48:21.021Z,12.30
2022-10-12T03:51:22.633Z,12.30
2022-10-12T03:54:24.171Z,12.25
2022-10-12T03:57:25.757Z,11.88
2022-10-12T04:00:28.460Z,11.57
2022-10-12T04:03:30.103Z,12.20
2022-10-12T04:06:31.662Z,11.73
2022-10-12T04:09:33.220Z,12.45
2022-10-12T04:12:34.763Z,11.95
2022-10-12T04:15:36.769Z,11.40
2022-10-12T04:18:38.499Z,12.07
2022-10-12T04:21:40.183Z,12.35
2022-10-12T04:24:41.777Z,12.52
2022-10-12T04:27:43.385Z,12.18
2022-10-12T04:30:45.974Z,12.68
2022-10-12T04:33:47.771Z,12.30
2022-10-12T04:36:49.869Z,12.52
2022-10-12T04:39:51.420Z,12.15
2022-10-12T04:42:53.099Z,11.07
2022-10-12T04:46:01.142Z,11.32
2022-10-12T04:49:05.576Z,11.77
2022-10-12T04:52:07.158Z,10.35
2022-10-12T04:55:08.980Z,11.25
2022-10-12T04:58:10.617Z,12.07
2022-10-12T05:01:12.250Z,10.70
2022-10-12T05:04:13.806Z,10.40
2022-10-12T05:07:15.400Z,10.73
2022-10-12T05:10:17.118Z,11.18
2022-10-12T05:13:19.201Z,11.20
2022-10-12T05:16:20.740Z,11.80
2022-10-12T05:19:22.304Z,11.45
2022-10-12T05:22:23.934Z,11.43
2022-10-12T05:25:25.628Z,11.63
2022-10-12T05:28:27.194Z,9.45
2022-10-12T05:31:28.858Z,12.35
2022-10-12T05:34:30.485Z,11.73
2022-10-12T05:37:33.647Z,13.10
2022-10-12T05:40:35.200Z,11.18
2022-10-12T05:43:36.718Z,10.90
2022-10-12T05:46:38.265Z,13.13
2022-10-12T05:49:39.775Z,13.27
2022-10-12T05:52:41.469Z,16.83
2022-10-12T05:55:55.668Z,15.68
2022-10-12T05:58:57.298Z,17.05
2022-10-12T06:01:58.984Z,15.30
2022-10-12T06:05:00.908Z,18.73
2022-10-12T06:08:02.441Z,18.33
2022-10-12T06:11:04.285Z,17.58
2022-10-12T06:14:06.132Z,16.85
2022-10-12T06:17:09.497Z,17.30
2022-10-12T06:20:11.326Z,17.25
2022-10-12T06:23:12.903Z,17.50
2022-10-12T06:26:14.552Z,17.13
2022-10-12T06:29:16.215Z,15.82
2022-10-12T06:32:17.749Z,16.60
2022-10-12T06:35:19.308Z,17.20
2022-10-12T06:38:20.978Z,14.98
2022-10-12T06:41:22.516Z,15.35
2022-10-12T06:44:24.135Z,15.05
2022-10-12T06:47:25.684Z,15.80
2022-10-12T06:50:27.401Z,17.40
2022-10-12T06:53:31.020Z,17.42
2022-10-12T06:56:32.553Z,19.60
2022-10-12T06:59:34.276Z,22.85
2022-10-12T07:02:36.278Z,22.08
2022-10-12T07:05:38.064Z,23.05
2022-10-12T07:08:41.128Z,23.38
2022-10-12T07:11:42.754Z,22.13
2022-10-12T07:14:44.388Z,20.58
2022-10-12T07:17:45.980Z,21.10
2022-10-12T07:20:47.664Z,21.52
2022-10-12T07:23:49.376Z,19.65
2022-10-12T07:26:51.729Z,22.27
2022-10-12T07:29:53.305Z,21.75
2022-10-12T07:32:54.875Z,19.95
2022-10-12T07:36:13.249Z,19.20
2022-10-12T07:39:15.829Z,17.75
2022-10-12T07:42:19.538Z,19.42
2022-10-12T07:45:22.170Z,19.10
2022-10-12T07:48:23.932Z,17.00
2022-10-12T07:51:25.541Z,15.25
2022-10-12T07:54:29.714Z,14.20
2022-10-12T07:57:31.344Z,12.45
2022-10-12T08:00:33.182Z,11.60
2022-10-12T08:03:35.457Z,10.52
2022-10-12T08:06:37.198Z,10.55
2022-10-12T08:09:38.825Z,9.05
2022-10-12T08:12:40.386Z,6.03
2022-10-12T08:15:50.332Z,6.07
2022-10-12T08:18:52.147Z,6.17
2022-10-12T08:21:53.781Z,7.45
2022-10-12T08:24:55.290Z,4.90
2022-10-12T08:27:58.413Z,5.10
2022-10-12T08:31:00.567Z,5.38
2022-10-12T08:34:02.242Z,4.88
2022-10-12T08:37:03.881Z,5.47
2022-10-12T08:40:06.136Z,5.35
2022-10-12T08:43:34.773Z,4.80
2022-10-12T08:46:36.428Z,3.92
2022-10-12T08:49:40.155Z,4.45
2022-10-12T08:52:48.900Z,4.68
2022-10-12T08:55:52.538Z,4.75
2022-10-12T08:58:54.950Z,4.28
2022-10-12T09:02:25.930Z,3.40
2022-10-12T09:05:38.192Z,4.00
2022-10-12T09:09:01.531Z,3.67
2022-10-12T09:12:24.635Z,3.67
2022-10-12T09:15:46.509Z,3.97
2022-10-12T09:18:55.124Z,3.10
2022-10-12T09:21:57.743Z,3.60
2022-10-12T09:25:00.523Z,3.70
2022-10-12T09:28:25.457Z,3.20
2022-10-12T09:31:52.146Z,3.72
2022-10-12T09:34:54.625Z,3.90
2022-10-12T09:37:56.256Z,3.63
2022-10-12T09:40:57.836Z,3.15
2022-10-12T09:44:02.498Z,3.53
2022-10-12T09:47:07.487Z,3.40
2022-10-12T09:50:09.104Z,3.45
2022-10-12T09:53:20.384Z,3.22
2022-10-12T09:56:30.263Z,3.05
2022-10-12T09:59:44.270Z,3.50
2022-10-12T10:02:51.205Z,3.67
2022-10-12T10:06:04.356Z,3.00
2022-10-12T10:09:32.387Z,3.03
2022-10-12T10:12:42.613Z,3.22
2022-10-12T10:15:49.715Z,3.90
2022-10-12T10:18:54.309Z,3.50
2022-10-12T10:21:56.503Z,3.58
2022-10-12T10:25:00.855Z,2.92
2022-10-12T10:28:23.861Z,3.33
2022-10-12T10:31:29.098Z,3.08
2022-10-12T10:34:30.829Z,3.15
2022-10-12T10:37:33.660Z,3.47
2022-10-12T10:40:35.389Z,3.45
2022-10-12T10:43:36.950Z,2.97
2022-10-12T10:46:46.001Z,2.63
2022-10-12T10:50:21.646Z,2.78
2022-10-12T10:53:25.528Z,2.58
2022-10-12T10:56:31.331Z,3.22
2022-10-12T10:59:45.706Z,3.60
2022-10-12T11:02:53.544Z,3.60
2022-10-12T11:06:12.305Z,2.95
2022-10-12T11:09:21.902Z,2.85
2022-10-12T11:12:46.867Z,2.90
2022-10-12T11:15:50.679Z,3.35
2022-10-12T11:18:58.660Z,3.05
2022-10-12T11:22:10.940Z,4.15
2022-10-12T11:25:44.461Z,4.10
2022-10-12T11:28:48.772Z,3.33
2022-10-12T11:31:56.215Z,3.38
2022-10-12T11:35:13.408Z,3.60
2022-10-12T11:38:26.826Z,3.17
2022-10-12T11:42:09.811Z,2.88
2022-10-12T11:45:34.189Z,3.10
2022-10-12T11:48:49.299Z,3.92
2022-10-12T11:51:53.500Z,3.35
2022-10-12T11:55:10.755Z,3.45
2022-10-12T11:58:36.429Z,3.63
2022-10-12T12:01:50.576Z,3.10
2022-10-12T12:04:53.327Z,3.10
2022-10-12T12:07:56.742Z,3.55
2022-10-12T12:11:26.049Z,2.72
2022-10-12T12:14:27.579Z,2.72
2022-10-12T12:17:32.385Z,3.22
2022-10-12T12:20:43.415Z,3.00
2022-10-12T12:23:52.679Z,3.30
2022-10-12T12:26:54.257Z,3.38
2022-10-12T12:29:57.669Z,3.13
2022-10-12T12:33:07.124Z,2.80
2022-10-12T12:36:12.734Z,3.58
2022-10-12T12:39:25.456Z,3.80
2022-10-12T12:42:32.009Z,3.88
2022-10-12T12:45:33.523Z,3.53
2022-10-12T12:48:44.470Z,3.65
2022-10-12T12:51:46.079Z,4.40
2022-10-12T12:55:09.924Z,3.60
2022-10-12T12:58:42.165Z,3.85
2022-10-12T13:02:21.681Z,3.35
2022-10-12T13:05:54.302Z,3.20
2022-10-12T13:09:28.134Z,3.97
2022-10-12T13:12:34.656Z,3.85
2022-10-12T13:16:04.612Z,3.90
2022-10-12T13:19:11.573Z,4.32
2022-10-12T13:22:18.956Z,4.00
2022-10-12T13:25:34.042Z,4.43
2022-10-12T13:28:43.330Z,4.05
2022-10-12T13:31:47.545Z,4.10
2022-10-12T13:34:52.350Z,3.85
2022-10-12T13:38:13.708Z,3.78
2022-10-12T13:41:18.733Z,3.40
2022-10-12T13:44:36.163Z,3.80
2022-10-12T13:47:43.059Z,4.93
2022-10-12T13:50:53.283Z,3.83
2022-10-12T13:53:55.325Z,4.85
2022-10-12T13:57:01.776Z,5.18
2022-10-12T14:00:18.602Z,4.63
2022-10-12T14:03:35.558Z,4.68
2022-10-12T14:06:38.178Z,4.65
2022-10-12T14:09:43.594Z,4.75
2022-10-12T14:12:46.708Z,4.45
2022-10-12T14:15:48.915Z,5.22
2022-10-12T14:18:50.931Z,5.15
2022-10-12T14:21:53.290Z,5.07
2022-10-12T14:25:18.246Z,6.22
2022-10-12T14:28:32.687Z,5.47
2022-10-12T14:31:48.654Z,5.97
2022-10-12T14:35:04.514Z,6.78
2022-10-12T14:38:28.618Z,5.85
2022-10-12T14:41:48.311Z,6.57
2022-10-12T14:44:50.590Z,6.70
2022-10-12T14:47:52.652Z,6.78
2022-10-12T14:50:54.447Z,6.45
2022-10-12T14:54:04.575Z,6.57
2022-10-12T14:57:15.037Z,6.32
2022-10-12T15:03:20.577Z,6.82
2022-10-12T15:06:22.156Z,6.43
2022-10-12T15:09:23.681Z,6.75
2022-10-12T15:12:26.503Z,6.78
2022-10-12T15:15:33.710Z,6.65
2022-10-12T15:18:35.262Z,6.05
2022-10-12T15:21:36.783Z,6.57
2022-10-12T15:24:38.345Z,6.55
2022-10-12T15:27:40.006Z,7.05
2022-10-12T15:31:04.209Z,6.70
2022-10-12T15:34:03.404Z,6.35
2022-10-12T15:37:08.866Z,6.78
2022-10-12T15:40:12.109Z,13.93
2022-10-12T15:43:13.835Z,12.68
2022-10-12T15:46:15.462Z,8.15
2022-10-12T15:49:19.778Z,6.72
2022-10-12T15:52:21.606Z,5.93
2022-10-12T15:55:29.204Z,7.40
2022-10-12T15:58:30.778Z,6.85
2022-10-12T16:01:34.687Z,7.07
2022-10-12T16:04:36.214Z,6.55
2022-10-12T16:07:37.759Z,7.13
2022-10-12T16:10:40.776Z,6.80
2022-10-12T16:13:49.963Z,6.75
2022-10-12T16:16:54.091Z,7.22
2022-10-12T16:19:55.642Z,6.85
2022-10-12T16:22:58.634Z,9.27
2022-10-12T16:26:04.606Z,7.95
2022-10-12T16:29:06.136Z,7.80
2022-10-12T16:32:07.694Z,7.50
2022-10-12T16:35:09.727Z,8.45
2022-10-12T16:38:11.825Z,7.70
2022-10-12T16:41:15.763Z,7.55
2022-10-12T16:44:17.330Z,8.82
2022-10-12T16:47:19.567Z,8.35
2022-10-12T16:50:22.870Z,8.30
2022-10-12T16:53:24.466Z,9.82
2022-10-12T16:56:26.364Z,10.82
2022-10-12T16:59:28.038Z,8.75
2022-10-12T17:02:29.667Z,9.15
2022-10-12T17:05:31.226Z,9.05
2022-10-12T17:08:36.034Z,10.48
2022-10-12T17:11:39.493Z,8.57
2022-10-12T17:14:41.159Z,9.77
2022-10-12T17:17:42.691Z,8.90
2022-10-12T17:20:44.309Z,11.70
2022-10-12T17:23:46.542Z,9.90
2022-10-12T17:26:48.412Z,10.32
2022-10-12T17:29:49.944Z,10.15
2022-10-12T17:32:51.508Z,10.50
2022-10-12T17:35:53.076Z,11.35
2022-10-12T17:38:56.477Z,11.05
2022-10-12T17:41:58.132Z,11.82
2022-10-12T17:44:59.724Z,10.25
2022-10-12T17:48:01.546Z,11.50
2022-10-12T17:51:09.260Z,11.30
2022-10-12T17:54:10.938Z,9.57
2022-10-12T17:57:12.564Z,11.88
2022-10-12T18:00:14.613Z,10.85
2022-10-12T18:03:16.241Z,16.77
2022-10-12T18:06:22.749Z,13.35
2022-10-12T18:09:24.317Z,12.30
2022-10-12T18:12:25.816Z,13.48
2022-10-12T18:15:27.377Z,12.45
2022-10-12T18:18:29.603Z,12.57
2022-10-12T18:21:32.468Z,12.45
2022-10-12T18:24:34.030Z,12.85
2022-10-12T18:27:35.639Z,12.35
2022-10-12T18:30:38.538Z,11.30
2022-10-12T18:33:40.054Z,14.10
2022-10-12T18:36:42.710Z,13.82
2022-10-12T18:39:44.287Z,13.07
2022-10-12T18:42:45.834Z,13.57
2022-10-12T18:45:47.350Z,13.30
2022-10-12T18:48:49.263Z,14.10
2022-10-12T18:51:52.549Z,14.07
2022-10-12T18:54:54.138Z,15.57
2022-10-12T18:57:55.725Z,15.98
2022-10-12T19:00:58.177Z,14.93
2022-10-12T19:04:01.064Z,15.45
2022-10-12T19:07:02.798Z,16.67
2022-10-12T19:10:08.432Z,16.75
2022-10-12T19:13:10.009Z,15.57
2022-10-12T19:16:14.920Z,15.00
2022-10-12T19:19:21.243Z,14.70
2022-10-12T19:22:23.260Z,15.52
2022-10-12T19:25:24.763Z,15.07
2022-10-12T19:28:26.362Z,16.17
2022-10-12T19:31:30.917Z,16.00
2022-10-12T19:34:32.500Z,15.60
2022-10-12T19:37:36.035Z,16.05
2022-10-12T19:40:37.845Z,15.60
2022-10-12T19:43:39.672Z,15.38
2022-10-12T19:46:42.579Z,14.68
2022-10-12T19:49:45.464Z,13.23
2022-10-12T19:52:47.235Z,13.57
2022-10-12T19:55:49.631Z,13.52
2022-10-12T19:58:52.668Z,13.73
2022-10-12T20:01:54.253Z,13.82
2022-10-12T20:04:56.003Z,13.27
2022-10-12T20:07:57.518Z,12.98
2022-10-12T20:10:59.064Z,13.02
2022-10-12T20:14:01.571Z,13.02
2022-10-12T20:17:03.191Z,13.55
2022-10-12T20:20:06.382Z,13.80
2022-10-12T20:23:08.029Z,14.05
2022-10-12T20:26:13.428Z,14.43
2022-10-12T20:29:14.992Z,13.80
2022-10-12T20:32:16.973Z,13.82
2022-10-12T20:35:18.662Z,14.20
2022-10-12T20:38:34.893Z,16.00
2022-10-12T20:41:36.567Z,14.75
2022-10-12T20:44:38.203Z,16.80
2022-10-12T20:47:41.254Z,16.05
2022-10-12T20:50:43.126Z,14.70
2022-10-12T20:53:50.184Z,14.25
2022-10-12T20:56:52.143Z,14.77
2022-10-12T20:59:56.897Z,14.75
2022-10-12T21:03:01.346Z,15.05
2022-10-12T21:06:08.680Z,14.88
2022-10-12T21:09:14.121Z,14.70
2022-10-12T21:12:16.074Z,13.68
2022-10-12T21:15:20.404Z,16.00
2022-10-12T21:18:26.871Z,14.90
2022-10-12T21:21:40.462Z,17.45
2022-10-12T21:24:45.153Z,16.17
2022-10-12T21:27:46.727Z,16.83
2022-10-12T21:30:49.566Z,16.98
2022-10-12T21:33:51.137Z,16.95
2022-10-12T21:36:52.944Z,16.95
2022-10-12T21:39:54.865Z,17.15
2022-10-12T21:43:06.572Z,16.42
2022-10-12T21:46:13.941Z,17.48
2022-10-12T21:49:15.808Z,16.40
2022-10-12T21:52:21.883Z,18.38
2022-10-12T21:55:23.749Z,17.75
2022-10-12T21:58:25.451Z,17.77
2022-10-12T22:01:30.080Z,17.00
2022-10-12T22:04:32.028Z,17.52
2022-10-12T22:07:33.751Z,17.00
2022-10-12T22:10:41.470Z,17.48
2022-10-12T22:13:42.997Z,16.25
2022-10-12T22:17:09.856Z,17.85
2022-10-12T22:27:25.775Z,17.65
2022-10-12T22:30:27.804Z,17.35
2022-10-12T22:33:32.284Z,17.35
2022-10-12T22:36:34.227Z,16.23
2022-10-12T22:39:35.823Z,19.00
2022-10-12T22:42:37.352Z,16.17
2022-10-12T22:45:39.676Z,17.55
2022-10-12T22:48:41.946Z,17.40
2022-10-12T22:51:51.678Z,16.58
2022-10-12T22:55:02.653Z,17.58
2022-10-12T22:58:10.406Z,15.98
2022-10-12T23:01:15.168Z,16.83
2022-10-12T23:04:22.703Z,17.52
2022-10-12T23:07:24.819Z,17.80
2022-10-12T23:10:27.207Z,16.45
2022-10-12T23:13:28.766Z,18.13
2022-10-12T23:16:32.000Z,16.67
2022-10-12T23:19:33.535Z,15.80
2022-10-12T23:22:35.115Z,16.58
2022-10-12T23:25:36.696Z,16.58
2022-10-12T23:28:38.405Z,17.55
2022-10-12T23:31:40.055Z,15.73
2022-10-12T23:34:41.971Z,15.73
2022-10-12T23:37:44.381Z,15.90
2022-10-12T23:40:45.973Z,15.93
2022-10-12T23:43:47.669Z,16.02
2022-10-12T23:46:49.223Z,15.15
2022-10-12T23:49:50.809Z,14.77
2022-10-12T23:52:52.349Z,14.30
2022-10-12T23:55:53.987Z,17.00
2022-10-12T23:58:55.704Z,15.07
